Time;durP1;ratioP1;P1;durP2;ratioP2;P2;SDS_P1;SDS_P2;PMS_P1;PMS_P2;Temp;Humidity;BMP_temperature;BMP_pressure;BME280_temperature;BME280_humidity;BME280_pressure;Samples;Min_cycle;Max_cycle;Signal;HPM_P1;HPM_P2
2023/08/09 00:01:02;;;;;;;3.65;1.65;;;;;;;;;;5086075;28;20036;-76
2023/08/09 00:03:28;;;;;;;5.85;2.00;;;;;;;;;;5064287;28;20080;-76
2023/08/09 00:05:54;;;;;;;3.75;1.45;;;12.20;99.90;;;;;;5065586;28;20433;-77
2023/08/09 00:08:20;;;;;;;6.07;2.00;;;12.30;99.90;;;;;;5079091;28;20082;-76
2023/08/09 00:10:46;;;;;;;3.25;1.50;;;;;;;;;;5066234;28;20044;-75
2023/08/09 00:13:12;;;;;;;2.50;1.38;;;12.20;99.90;;;;;;5062353;28;20055;-76
2023/08/09 00:15:38;;;;;;;2.95;1.60;;;;;;;;;;5064179;28;20062;-76
2023/08/09 00:18:05;;;;;;;4.72;1.83;;;;;;;;;;5072304;28;20066;-76
2023/08/09 00:20:32;;;;;;;2.90;1.33;;;12.00;99.90;;;;;;5065406;28;20039;-76
2023/08/09 00:22:58;;;;;;;3.83;1.58;;;;;;;;;;5087132;28;20036;-76
2023/08/09 00:25:24;;;;;;;6.88;1.73;;;12.10;99.90;;;;;;5071757;28;20089;-75
2023/08/09 00:27:49;;;;;;;5.50;2.10;;;12.10;99.90;;;;;;5048269;28;20118;-76
2023/08/09 00:30:15;;;;;;;6.30;1.85;;;12.10;99.90;;;;;;5059635;28;20414;-76
2023/08/09 00:32:41;;;;;;;4.90;1.77;;;12.10;99.90;;;;;;5069625;28;20052;-76
2023/08/09 00:35:08;;;;;;;3.70;1.95;;;12.00;99.90;;;;;;5052517;28;20621;-76
2023/08/09 00:37:35;;;;;;;4.65;2.17;;;;;;;;;;5068020;28;20170;-76
2023/08/09 00:40:05;;;;;;;4.65;2.13;;;;;;;;;;5036552;28;20075;-76
2023/08/09 00:42:30;;;;;;;3.35;2.10;;;12.00;99.90;;;;;;5047298;28;20129;-75
2023/08/09 00:44:57;;;;;;;3.95;2.40;;;;;;;;;;5062163;28;20136;-76
2023/08/09 00:47:22;;;;;;;4.95;2.00;;;;;;;;;;5046449;28;20064;-75
2023/08/09 00:49:49;;;;;;;4.63;2.20;;;;;;;;;;5044661;28;20106;-76
2023/08/09 00:52:15;;;;;;;3.92;2.53;;;11.80;99.90;;;;;;5045614;28;20055;-76
2023/08/09 00:54:43;;;;;;;4.65;2.20;;;;;;;;;;5046830;28;20044;-76
2023/08/09 00:57:09;;;;;;;7.63;2.78;;;;;;;;;;5050132;28;20090;-76
2023/08/09 00:59:35;;;;;;;5.13;2.95;;;;;;;;;;5031464;28;20077;-76
2023/08/09 01:02:01;;;;;;;6.13;2.75;;;11.80;99.90;;;;;;5047390;28;20477;-76
2023/08/09 01:04:27;;;;;;;6.65;2.95;;;11.90;99.90;;;;;;5047216;28;20131;-76
2023/08/09 01:07:00;;;;;;;3.05;2.30;;;11.70;99.90;;;;;;5030200;28;20040;-75
2023/08/09 01:09:33;;;;;;;6.22;3.25;;;;;;;;;;5053101;28;20032;-76
2023/08/09 01:12:16;;;;;;;4.18;3.08;;;11.70;99.90;;;;;;5064632;28;20460;-76
2023/08/09 01:14:43;;;;;;;7.93;2.67;;;11.70;99.90;;;;;;5046197;28;20048;-76
2023/08/09 01:17:14;;;;;;;4.22;2.75;;;11.70;99.90;;;;;;5047778;28;20048;-75
2023/08/09 01:19:40;;;;;;;5.28;2.97;;;;;;;;;;5067315;28;20386;-75
2023/08/09 01:22:16;;;;;;;4.65;3.28;;;;;;;;;;5041158;28;20049;-75
2023/08/09 01:24:42;;;;;;;4.78;2.65;;;;;;;;;;5030554;28;20457;-76
2023/08/09 01:27:09;;;;;;;8.25;3.75;;;;;;;;;;5044999;28;20063;-76
2023/08/09 01:29:35;;;;;;;6.82;3.70;;;11.80;99.90;;;;;;5060859;28;20041;-76
2023/08/09 01:32:01;;;;;;;6.90;3.38;;;;;;;;;;5045489;28;20036;-75
2023/08/09 01:34:28;;;;;;;6.43;3.13;;;;;;;;;;5065394;28;20048;-74
2023/08/09 01:36:58;;;;;;;9.32;3.50;;;11.70;99.90;;;;;;5042356;28;20403;-75
2023/08/09 01:39:29;;;;;;;5.30;3.38;;;12.00;99.90;;;;;;5034871;28;20081;-75
2023/08/09 01:41:56;;;;;;;4.50;3.25;;;11.60;99.90;;;;;;5064858;28;20058;-75
2023/08/09 01:44:23;;;;;;;5.80;3.60;;;11.70;99.90;;;;;;5083937;28;20037;-75
2023/08/09 01:46:49;;;;;;;4.88;4.25;;;;;;;;;;5065124;28;20111;-75
2023/08/09 01:49:21;;;;;;;7.38;3.65;;;11.60;99.90;;;;;;5075470;28;20047;-75
2023/08/09 01:51:47;;;;;;;5.57;3.25;;;;;;;;;;5088907;28;20043;-75
2023/08/09 01:54:14;;;;;;;5.55;3.55;;;;;;;;;;5067666;28;20376;-76
2023/08/09 01:56:40;;;;;;;4.80;3.33;;;11.50;99.90;;;;;;5054005;28;20126;-75
2023/08/09 01:59:08;;;;;;;5.13;3.67;;;11.60;99.90;;;;;;5063294;28;20097;-75
2023/08/09 02:01:34;;;;;;;5.30;3.13;;;;;;;;;;5066512;28;20459;-75
2023/08/09 02:04:00;;;;;;;4.20;3.05;;;;;;;;;;5061484;28;20047;-75
2023/08/09 02:06:26;;;;;;;4.65;3.60;;;;;;;;;;5072249;28;20040;-75
2023/08/09 02:08:53;;;;;;;5.88;3.67;;;;;;;;;;5059641;28;20046;-76
2023/08/09 02:11:19;;;;;;;6.78;3.55;;;;;;;;;;5062136;28;20039;-75
2023/08/09 02:13:46;;;;;;;7.18;3.60;;;;;;;;;;5062154;28;20056;-76
2023/08/09 02:16:12;;;;;;;7.18;3.58;;;;;;;;;;5045391;28;20044;-75
2023/08/09 02:18:38;;;;;;;4.95;3.13;;;11.50;99.90;;;;;;5075608;28;20780;-75
2023/08/09 02:21:05;;;;;;;6.55;2.85;;;;;;;;;;5064492;28;20075;-76
2023/08/09 02:23:31;;;;;;;5.25;3.42;;;;;;;;;;5069193;28;20610;-76
2023/08/09 02:25:56;;;;;;;8.25;2.78;;;11.60;99.90;;;;;;5064556;28;20056;-75
2023/08/09 02:28:22;;;;;;;5.53;3.50;;;;;;;;;;5057429;28;20157;-75
2023/08/09 02:30:49;;;;;;;6.38;3.55;;;;;;;;;;5059373;28;20098;-75
2023/08/09 02:33:15;;;;;;;6.63;3.95;;;;;;;;;;5063861;28;20055;-75
2023/08/09 02:36:07;;;;;;;4.57;2.92;;;11.40;99.90;;;;;;5063358;28;20036;-75
2023/08/09 02:38:33;;;;;;;4.85;3.17;;;;;;;;;;5045745;28;20082;-76
2023/08/09 02:41:06;;;;;;;7.05;3.40;;;;;;;;;;5085477;28;20798;-75
2023/08/09 02:43:32;;;;;;;4.90;3.97;;;;;;;;;;5059927;28;20090;-75
2023/08/09 02:45:58;;;;;;;7.35;3.67;;;;;;;;;;5064138;28;20047;-75
2023/08/09 02:48:24;;;;;;;5.65;3.35;;;;;;;;;;5077970;28;20044;-75
2023/08/09 02:50:50;;;;;;;6.57;4.03;;;;;;;;;;5080086;28;20042;-75
2023/08/09 02:53:17;;;;;;;6.50;3.42;;;;;;;;;;5057120;28;20036;-75
2023/08/09 02:55:43;;;;;;;6.97;3.53;;;;;;;;;;5063360;28;20040;-74
2023/08/09 02:58:09;;;;;;;10.23;4.35;;;11.50;99.90;;;;;;5061975;28;20043;-75
2023/08/09 03:00:36;;;;;;;6.85;3.92;;;11.40;99.90;;;;;;5044534;28;20083;-75
2023/08/09 03:03:04;;;;;;;6.03;3.95;;;;;;;;;;5079296;28;20479;-75
2023/08/09 03:05:30;;;;;;;8.00;4.20;;;11.50;99.90;;;;;;5056893;28;20052;-75
2023/08/09 03:07:56;;;;;;;5.85;3.63;;;;;;;;;;5081082;28;20032;-75
2023/08/09 03:10:23;;;;;;;6.72;3.97;;;;;;;;;;5081274;28;20047;-75
2023/08/09 03:12:48;;;;;;;6.68;3.85;;;11.50;99.90;;;;;;5089515;28;20059;-75
2023/08/09 03:15:15;;;;;;;5.10;3.20;;;;;;;;;;5070493;28;20047;-75
2023/08/09 03:17:41;;;;;;;6.93;3.78;;;11.50;99.90;;;;;;5077594;28;20516;-75
2023/08/09 03:20:14;;;;;;;5.25;3.67;;;;;;;;;;5093055;28;20044;-75
2023/08/09 03:22:40;;;;;;;4.97;3.92;;;;;;;;;;5065280;28;20058;-75
2023/08/09 03:25:06;;;;;;;6.53;3.67;;;11.10;99.90;;;;;;5061644;28;20062;-75
2023/08/09 03:27:32;;;;;;;5.45;3.92;;;;;;;;;;5085264;28;20101;-75
2023/08/09 03:29:58;;;;;;;7.53;4.15;;;;;;;;;;5043904;28;20037;-75
2023/08/09 03:32:24;;;;;;;5.53;4.03;;;;;;;;;;5050705;28;20074;-75
2023/08/09 03:34:50;;;;;;;6.55;3.78;;;;;;;;;;5083024;28;20867;-74
2023/08/09 03:37:16;;;;;;;9.02;4.00;;;;;;;;;;5057873;28;20058;-74
2023/08/09 03:39:42;;;;;;;7.78;3.95;;;;;;;;;;5044164;28;20426;-75
2023/08/09 03:42:08;;;;;;;8.25;4.93;;;;;;;;;;5065927;28;20048;-74
2023/08/09 03:44:34;;;;;;;4.85;3.70;;;;;;;;;;5058780;28;20052;-74
2023/08/09 03:47:00;;;;;;;5.88;3.40;;;;;;;;;;5063120;28;20041;-74
2023/08/09 03:49:26;;;;;;;6.57;3.75;;;;;;;;;;5059155;28;20032;-74
2023/08/09 03:51:52;;;;;;;6.10;3.63;;;;;;;;;;5075333;28;20058;-74
2023/08/09 03:54:18;;;;;;;6.80;4.15;;;11.00;99.90;;;;;;5039636;28;20047;-74
2023/08/09 03:56:44;;;;;;;5.38;4.10;;;;;;;;;;5066235;28;20083;-74
2023/08/09 03:59:10;;;;;;;7.55;4.32;;;;;;;;;;5057228;28;20051;-74
2023/08/09 04:01:36;;;;;;;7.43;5.10;;;;;;;;;;5064548;28;20764;-74
2023/08/09 04:04:03;;;;;;;7.55;4.32;;;;;;;;;;5060235;28;20616;-74
2023/08/09 04:06:29;;;;;;;7.53;4.22;;;;;;;;;;5055882;28;20517;-74
2023/08/09 04:08:55;;;;;;;7.10;4.25;;;;;;;;;;5043147;28;20040;-74
2023/08/09 04:11:21;;;;;;;7.75;4.65;;;;;;;;;;5048768;28;20050;-74
2023/08/09 04:13:47;;;;;;;5.75;4.18;;;;;;;;;;5075417;28;20044;-74
2023/08/09 04:16:13;;;;;;;8.68;4.75;;;;;;;;;;5047913;28;20048;-74
2023/08/09 04:18:39;;;;;;;8.13;4.38;;;;;;;;;;5039060;28;20156;-74
2023/08/09 04:21:06;;;;;;;6.25;4.03;;;;;;;;;;5036260;28;20567;-74
2023/08/09 04:23:32;;;;;;;5.95;4.15;;;;;;;;;;5063413;28;20178;-74
2023/08/09 04:26:00;;;;;;;6.03;3.95;;;;;;;;;;5064688;28;20125;-74
2023/08/09 04:28:26;;;;;;;11.02;5.05;;;;;;;;;;5063683;28;20095;-74
2023/08/09 04:30:53;;;;;;;6.20;4.63;;;;;;;;;;5036532;28;20072;-74
2023/08/09 04:33:18;;;;;;;10.43;4.47;;;11.30;99.90;;;;;;5064873;28;20041;-74
2023/08/09 04:35:44;;;;;;;6.85;4.55;;;11.30;99.90;;;;;;5059089;28;20036;-74
2023/08/09 04:38:10;;;;;;;9.07;4.20;;;;;;;;;;5061986;28;20047;-74
2023/08/09 04:40:36;;;;;;;6.10;3.88;;;;;;;;;;5082738;28;20417;-74
2023/08/09 04:43:03;;;;;;;4.57;3.60;;;11.70;99.90;;;;;;5058391;28;20040;-73
2023/08/09 04:51:36;;;;;;;5.50;3.47;;;;;;;;;;5048727;28;20659;-76
2023/08/09 04:54:12;;;;;;;;;;;;;;;;;;;;;
2023/08/09 04:56:44;;;;;;;6.88;3.78;;;;;;;;;;5056780;28;20040;-76
2023/08/09 04:59:23;;;;;;;6.60;3.13;;;;;;;;;;5046693;28;20045;-75
2023/08/09 05:02:00;;;;;;;6.47;3.63;;;;;;;;;;5045957;28;20072;-74
2023/08/09 05:04:26;;;;;;;6.78;3.80;;;;;;;;;;5047137;28;20039;-75
2023/08/09 05:06:52;;;;;;;4.47;3.30;;;;;;;;;;5047765;28;21436;-76
2023/08/09 05:09:18;;;;;;;5.10;3.95;;;;;;;;;;5028764;28;20068;-75
2023/08/09 05:11:56;;;;;;;7.50;4.18;;;;;;;;;;5049860;28;20536;-77
2023/08/09 05:14:22;;;;;;;6.57;3.40;;;;;;;;;;5027866;28;20857;-76
2023/08/09 05:16:48;;;;;;;5.57;3.40;;;;;;;;;;5047238;28;20470;-77
2023/08/09 05:19:17;;;;;;;4.05;3.17;;;;;;;;;;5047059;28;20040;-74
2023/08/09 05:21:42;;;;;;;3.90;3.00;;;;;;;;;;5046678;28;20048;-74
2023/08/09 05:24:33;;;;;;;8.77;3.92;;;12.10;99.90;;;;;;5059292;28;20048;-78
2023/08/09 05:26:59;;;;;;;6.18;3.72;;;;;;;;;;5045512;28;20033;-76
2023/08/09 05:29:27;;;;;;;4.60;3.00;;;;;;;;;;5060483;28;20036;-75
2023/08/09 05:31:53;;;;;;;5.38;3.80;;;;;;;;;;5046490;28;20085;-78
2023/08/09 05:34:19;;;;;;;5.53;3.10;;;;;;;;;;5045122;28;20045;-75
2023/08/09 05:36:51;;;;;;;4.20;3.25;;;;;;;;;;5058036;28;20156;-76
2023/08/09 05:39:22;;;;;;;6.20;3.28;;;12.40;99.90;;;;;;5046210;28;20037;-75
2023/08/09 05:41:50;;;;;;;4.05;2.67;;;13.00;99.90;;;;;;5028841;28;20037;-75
2023/08/09 05:44:17;;;;;;;4.13;2.58;;;;;;;;;;5040316;28;20681;-77
2023/08/09 05:46:43;;;;;;;4.20;2.80;;;;;;;;;;5045995;28;20079;-74
2023/08/09 05:49:09;;;;;;;4.15;2.38;;;;;;;;;;5046632;28;20045;-75
2023/08/09 05:51:35;;;;;;;5.50;2.58;;;;;;;;;;5050249;28;20064;-77
2023/08/09 05:54:03;;;;;;;4.03;2.13;;;15.80;99.90;;;;;;5046052;28;20099;-77
2023/08/09 05:56:32;;;;;;;7.70;2.50;;;;;;;;;;5047368;28;20049;-76
2023/08/09 05:58:58;;;;;;;3.63;2.13;;;;;;;;;;5029921;28;20043;-78
2023/08/09 06:01:24;;;;;;;3.95;1.50;;;;;;;;;;5046203;28;20029;-78
2023/08/09 06:03:50;;;;;;;2.17;1.50;;;;;;;;;;5046590;28;20041;-77
2023/08/09 06:06:16;;;;;;;4.38;1.80;;;19.60;99.90;;;;;;5043690;28;20037;-77
2023/08/09 06:08:42;;;;;;;2.78;1.42;;;;;;;;;;5041880;28;20470;-78
2023/08/09 06:11:25;;;;;;;4.38;1.80;;;20.90;99.90;;;;;;5047037;28;20685;-79
2023/08/09 06:14:05;;;;;;;2.58;1.40;;;21.50;99.90;;;;;;5048328;28;20056;-77
2023/08/09 06:16:43;;;;;;;2.42;1.15;;;;;;;;;;5030664;28;20080;-71
2023/08/09 06:19:09;;;;;;;3.00;1.20;;;22.10;99.90;;;;;;5046712;28;20559;-74
2023/08/09 06:21:41;;;;;;;2.33;0.90;;;22.20;99.90;;;;;;5042359;28;20128;-77
2023/08/09 06:24:07;;;;;;;1.25;0.70;;;23.70;99.90;;;;;;5050742;28;20046;-70
2023/08/09 06:26:33;;;;;;;1.98;0.85;;;25.70;99.90;;;;;;5036158;28;20392;-70
2023/08/09 06:29:00;;;;;;;4.00;1.05;;;23.60;99.90;;;;;;5051659;28;20033;-69
2023/08/09 06:31:25;;;;;;;2.20;0.90;;;26.90;99.90;;;;;;5045986;28;20044;-67
2023/08/09 06:33:53;;;;;;;2.85;0.82;;;26.30;99.90;;;;;;5056738;28;20087;-66
2023/08/09 06:36:18;;;;;;;3.75;0.68;;;26.40;99.90;;;;;;5051011;28;20040;-67
2023/08/09 06:38:44;;;;;;;2.75;0.60;;;25.20;99.90;;;;;;5044146;28;20096;-67
2023/08/09 06:41:09;;;;;;;0.80;0.60;;;25.70;99.90;;;;;;5048659;28;20051;-67
2023/08/09 06:43:35;;;;;;;1.63;0.60;;;25.60;99.90;;;;;;5048156;28;20128;-67
2023/08/09 06:46:01;;;;;;;5.20;0.75;;;26.50;99.90;;;;;;5056779;28;20036;-67
2023/08/09 06:48:29;;;;;;;1.40;0.40;;;25.60;99.90;;;;;;5044644;28;20474;-67
2023/08/09 06:50:56;;;;;;;2.78;0.30;;;25.90;99.90;;;;;;5076092;28;20109;-69
2023/08/09 06:53:23;;;;;;;1.65;0.40;;;27.30;99.90;;;;;;5057518;28;20482;-67
2023/08/09 06:55:48;;;;;;;2.55;0.40;;;26.40;99.90;;;;;;5069264;28;20054;-67
2023/08/09 06:58:14;;;;;;;2.30;0.73;;;27.90;99.90;;;;;;5085633;28;20385;-67
2023/08/09 07:00:39;;;;;;;1.63;0.38;;;27.60;99.90;;;;;;5051708;28;20040;-68
2023/08/09 07:03:05;;;;;;;2.55;0.20;;;28.00;99.90;;;;;;5086928;28;20043;-68
2023/08/09 07:05:30;;;;;;;2.83;0.43;;;28.90;99.90;;;;;;5087077;28;20054;-69
2023/08/09 07:07:56;;;;;;;1.08;0.40;;;25.20;99.90;;;;;;5075691;28;20040;-67
2023/08/09 07:10:24;;;;;;;1.95;0.40;;;25.20;99.90;;;;;;5071998;28;20064;-70
2023/08/09 07:12:50;;;;;;;0.90;0.30;;;23.60;99.90;;;;;;5077247;28;20047;-70
2023/08/09 07:15:16;;;;;;;3.13;0.50;;;22.80;99.90;;;;;;5085031;28;20040;-71
2023/08/09 07:17:42;;;;;;;2.60;0.80;;;21.80;99.90;;;;;;5086524;28;20504;-70
2023/08/09 07:20:11;;;;;;;3.13;0.57;;;22.80;99.90;;;;;;5073158;28;20051;-70
2023/08/09 07:22:37;;;;;;;4.80;0.60;;;20.60;99.90;;;;;;5076385;28;20036;-70
2023/08/09 07:25:03;;;;;;;2.65;0.70;;;20.20;99.90;;;;;;5079255;28;20044;-70
2023/08/09 07:27:29;;;;;;;3.22;0.60;;;19.80;99.90;;;;;;5076963;28;20512;-69
2023/08/09 07:29:54;;;;;;;3.00;0.70;;;19.40;99.90;;;;;;5080147;28;20122;-70
2023/08/09 07:32:20;;;;;;;2.45;0.57;;;19.20;99.90;;;;;;5086500;28;20097;-69
2023/08/09 07:34:46;;;;;;;2.53;0.70;;;19.00;99.90;;;;;;5061828;28;20048;-71
2023/08/09 07:37:12;;;;;;;3.67;0.85;;;;;;;;;;5077326;28;20404;-70
2023/08/09 07:39:37;;;;;;;6.07;1.05;;;18.70;99.90;;;;;;5073660;28;20161;-70
2023/08/09 07:42:03;;;;;;;3.50;0.80;;;18.60;99.90;;;;;;5057085;28;20135;-69
2023/08/09 07:44:28;;;;;;;3.80;0.65;;;18.40;99.90;;;;;;5051647;28;20059;-69
2023/08/09 07:46:54;;;;;;;2.83;0.40;;;18.30;99.90;;;;;;5083804;28;20065;-69
2023/08/09 07:49:20;;;;;;;2.58;1.00;;;;;;;;;;5071042;28;20413;-69
2023/08/09 07:51:46;;;;;;;1.90;0.60;;;;;;;;;;5086045;28;20064;-67
2023/08/09 07:54:15;;;;;;;5.07;0.68;;;;;;;;;;5073314;28;20088;-70
2023/08/09 07:56:41;;;;;;;5.28;0.60;;;;;;;;;;5073810;28;20467;-70
2023/08/09 07:59:06;;;;;;;2.33;0.98;;;18.30;99.90;;;;;;5067121;28;20379;-69
2023/08/09 08:01:32;;;;;;;4.28;0.80;;;18.20;99.90;;;;;;5079603;28;20090;-70
2023/08/09 08:03:58;;;;;;;2.08;0.50;;;18.20;99.90;;;;;;5089564;28;20051;-68
2023/08/09 08:06:24;;;;;;;2.10;0.57;;;18.00;99.90;;;;;;5088745;28;20039;-69
2023/08/09 08:08:49;;;;;;;1.80;0.68;;;18.10;99.90;;;;;;5089104;28;20040;-68
2023/08/09 08:11:15;;;;;;;2.88;0.60;;;;;;;;;;5087894;28;21065;-69
2023/08/09 08:13:41;;;;;;;5.40;0.90;;;18.10;99.90;;;;;;5071875;28;20044;-67
2023/08/09 08:16:06;;;;;;;5.22;1.42;;;18.10;99.90;;;;;;5069271;28;20386;-66
2023/08/09 08:18:32;;;;;;;2.60;0.70;;;;;;;;;;5074745;28;20123;-68
2023/08/09 08:21:00;;;;;;;6.35;1.15;;;;;;;;;;5071130;28;20084;-67
2023/08/09 08:23:26;;;;;;;4.68;0.65;;;;;;;;;;5077843;28;20055;-68
2023/08/09 08:25:52;;;;;;;1.77;0.68;;;;;;;;;;5088262;28;20163;-70
2023/08/09 08:28:18;;;;;;;7.00;1.17;;;;;;;;;;5082264;28;20036;-67
2023/08/09 08:30:44;;;;;;;2.33;0.60;;;;;;;;;;5068569;28;20047;-66
2023/08/09 08:33:10;;;;;;;2.20;0.70;;;;;;;;;;5085876;28;20641;-66
2023/08/09 08:35:43;;;;;;;2.88;0.90;;;;;;;;;;5085329;28;20088;-67
2023/08/09 08:38:09;;;;;;;1.70;0.63;;;;;;;;;;5094678;22;20064;-67
2023/08/09 08:40:35;;;;;;;1.67;0.82;;;;;;;;;;5073185;28;20056;-67
2023/08/09 08:43:01;;;;;;;1.70;0.52;;;;;;;;;;5095450;28;20397;-67
2023/08/09 08:45:27;;;;;;;2.30;0.70;;;18.60;99.90;;;;;;5077946;28;20109;-66
2023/08/09 08:47:53;;;;;;;1.45;0.50;;;;;;;;;;5085299;28;20065;-67
2023/08/09 08:50:19;;;;;;;2.53;0.38;;;18.70;99.90;;;;;;5081453;28;20775;-67
2023/08/09 08:52:47;;;;;;;1.55;0.80;;;20.50;99.90;;;;;;5059936;28;20084;-67
2023/08/09 08:55:14;;;;;;;4.18;0.60;;;18.70;99.90;;;;;;5078231;28;20185;-67
2023/08/09 08:57:46;;;;;;;1.38;0.50;;;18.70;99.90;;;;;;5082397;28;20828;-68
2023/08/09 09:00:16;;;;;;;2.63;0.55;;;18.80;99.90;;;;;;5082291;28;20048;-69
2023/08/09 09:02:46;;;;;;;4.57;0.60;;;19.00;99.90;;;;;;5057472;28;20133;-65
2023/08/09 09:05:16;;;;;;;2.03;0.60;;;19.20;99.90;;;;;;5088474;28;20044;-66
2023/08/09 09:07:44;;;;;;;2.80;0.32;;;18.40;99.90;;;;;;5072031;28;20371;-67
2023/08/09 09:33:33;;;;;;;3.13;0.60;;;19.70;99.90;;;;;;4203715;26;20068;-70
2023/08/09 09:35:59;;;;;;;2.15;0.73;;;19.80;99.90;;;;;;5049319;28;20047;-67
2023/08/09 09:38:24;;;;;;;2.70;0.38;;;19.80;99.90;;;;;;5070580;28;20037;-68
2023/08/09 09:40:50;;;;;;;2.03;0.50;;;19.70;99.90;;;;;;5038372;28;20175;-68
2023/08/09 09:43:15;;;;;;;1.77;0.30;;;19.90;99.90;;;;;;5053051;28;20043;-67
2023/08/09 09:45:46;;;;;;;1.45;0.40;;;20.00;99.90;;;;;;5037735;28;20040;-66
2023/08/09 09:48:19;;;;;;;1.75;0.47;;;20.10;99.90;;;;;;5057527;28;20428;-67
2023/08/09 09:50:45;;;;;;;1.42;0.47;;;20.10;99.90;;;;;;5056558;28;20052;-67
2023/08/09 09:53:16;;;;;;;1.75;0.60;;;20.10;99.90;;;;;;5039458;28;20040;-67
2023/08/09 09:55:41;;;;;;;3.00;0.57;;;20.00;99.90;;;;;;5050031;28;20044;-67
2023/08/09 09:58:07;;;;;;;2.17;0.60;;;;;;;;;;5017414;28;20045;-67
2023/08/09 10:00:33;;;;;;;3.10;0.60;;;20.10;99.90;;;;;;5056449;28;20044;-66
2023/08/09 10:03:05;;;;;;;3.95;0.82;;;20.10;99.90;;;;;;5056530;28;20037;-66
2023/08/09 10:05:37;;;;;;;0.90;0.47;;;20.30;99.90;;;;;;5054543;28;20041;-66
2023/08/09 10:08:07;;;;;;;2.50;0.60;;;20.50;99.90;;;;;;5020159;28;20044;-68
2023/08/09 10:10:36;;;;;;;2.78;0.43;;;20.60;99.90;;;;;;5036703;28;20397;-69
2023/08/09 10:13:04;;;;;;;3.40;0.50;;;20.70;99.90;;;;;;5025065;28;20761;-69
2023/08/09 10:15:53;;;;;;;2.25;0.50;;;20.90;99.90;;;;;;5058203;28;20436;-69
2023/08/09 10:18:27;;;;;;;1.95;0.70;;;21.70;99.90;;;;;;5051604;28;20040;-68
2023/08/09 10:20:55;;;;;;;1.50;0.60;;;21.00;99.90;;;;;;5020766;28;20041;-67
2023/08/09 10:23:26;;;;;;;3.33;0.43;;;20.90;99.90;;;;;;5044251;28;20625;-68
2023/08/09 10:25:55;;;;;;;2.40;0.60;;;20.80;99.90;;;;;;5031108;28;20123;-68
2023/08/09 10:42:40;;;;;;;3.50;0.63;;;20.50;99.90;;;;;;2162047;22;20762;-70
2023/08/09 10:45:08;;;;;;;1.48;0.50;;;20.40;99.90;;;;;;5058731;28;20044;-70
2023/08/09 10:47:33;;;;;;;1.52;0.50;;;20.30;99.90;;;;;;5066492;28;20066;-70
2023/08/09 10:50:00;;;;;;;1.65;0.50;;;20.30;99.90;;;;;;5063027;28;20036;-69
2023/08/09 10:52:30;;;;;;;1.35;0.60;;;20.30;99.90;;;;;;5058699;28;20059;-69
2023/08/09 10:55:18;;;;;;;1.27;0.40;;;20.40;99.90;;;;;;5032266;28;20095;-69
2023/08/09 10:57:44;;;;;;;2.30;0.50;;;;;;;;;;5032975;28;20044;-69
2023/08/09 11:00:14;;;;;;;4.20;0.50;;;20.40;99.90;;;;;;5023105;28;20047;-66
2023/08/09 11:03:11;;;;;;;2.38;0.68;;;20.40;99.90;;;;;;5066404;28;20044;-66
2023/08/09 11:05:37;;;;;;;2.83;0.63;;;20.40;99.90;;;;;;5060272;28;20489;-66
2023/08/09 11:08:09;;;;;;;1.75;0.68;;;20.40;99.90;;;;;;5069353;28;20583;-68
2023/08/09 11:10:41;;;;;;;1.65;0.70;;;20.50;99.90;;;;;;5029617;28;20049;-68
2023/08/09 11:13:15;;;;;;;2.55;0.88;;;20.50;99.90;;;;;;5059558;28;20115;-67
2023/08/09 11:15:46;;;;;;;4.60;0.73;;;20.30;99.90;;;;;;5064936;28;20044;-67
2023/08/09 11:18:12;;;;;;;1.40;0.50;;;20.40;99.90;;;;;;5064567;28;20044;-67
2023/08/09 11:20:38;;;;;;;3.25;0.85;;;21.00;99.90;;;;;;5068268;28;20170;-67
2023/08/09 11:23:04;;;;;;;1.48;0.60;;;21.20;99.90;;;;;;5061158;28;20041;-67
2023/08/09 11:25:34;;;;;;;2.13;0.70;;;20.30;99.90;;;;;;5056969;28;20506;-67
2023/08/09 11:28:02;;;;;;;3.67;0.82;;;20.00;99.90;;;;;;5051252;28;20045;-67
2023/08/09 11:30:32;;;;;;;4.05;0.90;;;20.10;99.90;;;;;;5063268;28;20040;-67
2023/08/09 11:33:05;;;;;;;3.95;1.00;;;20.10;99.90;;;;;;5035787;28;20057;-67
2023/08/09 11:35:42;;;;;;;3.33;1.05;;;21.70;99.90;;;;;;5042248;28;20057;-66
2023/08/09 11:56:23;;;;;;;1.63;0.60;;;;;;;;;;5058178;28;20098;-67
2023/08/09 12:32:24;;;;;;;3.60;0.90;;;;;;;;;;5050050;28;20060;-68
2023/08/09 12:34:51;;;;;;;4.57;1.10;;;;;;;;;;5041541;28;20414;-67
2023/08/09 12:37:17;;;;;;;2.72;0.65;;;20.10;99.90;;;;;;5051906;28;20051;-67
2023/08/09 12:39:42;;;;;;;1.52;0.60;;;20.00;99.90;;;;;;5047647;28;20083;-67
2023/08/09 12:42:08;;;;;;;3.72;0.70;;;20.30;99.90;;;;;;5034441;28;20813;-67
2023/08/09 12:44:34;;;;;;;2.65;0.77;;;20.30;99.90;;;;;;5045215;28;20033;-67
2023/08/09 12:46:59;;;;;;;2.78;0.98;;;20.40;99.90;;;;;;5039051;28;20484;-67
2023/08/09 12:49:25;;;;;;;3.35;0.95;;;20.30;99.90;;;;;;5048473;28;20165;-68
2023/08/09 12:51:50;;;;;;;2.22;0.60;;;20.30;99.90;;;;;;5048212;28;20040;-68
2023/08/09 12:54:16;;;;;;;6.68;1.38;;;20.20;99.90;;;;;;5047785;28;20491;-70
2023/08/09 12:56:42;;;;;;;2.03;0.40;;;19.90;99.90;;;;;;5034742;28;20037;-66
2023/08/09 12:59:08;;;;;;;2.47;0.57;;;20.20;99.90;;;;;;5100232;23;20057;-67
2023/08/09 13:01:35;;;;;;;3.80;0.50;;;20.20;99.90;;;;;;5029066;28;20419;-67
2023/08/09 13:04:01;;;;;;;3.90;0.63;;;20.10;99.90;;;;;;5026565;28;20036;-66
2023/08/09 13:06:27;;;;;;;3.42;0.60;;;20.10;99.90;;;;;;5045953;28;20037;-66
2023/08/09 13:08:53;;;;;;;2.45;0.63;;;20.10;99.90;;;;;;5040070;28;20048;-68
2023/08/09 13:11:18;;;;;;;3.05;0.80;;;20.00;99.90;;;;;;5006354;28;20124;-68
2023/08/09 13:13:44;;;;;;;4.97;0.95;;;20.10;99.90;;;;;;5029136;28;20080;-68
2023/08/09 13:16:10;;;;;;;3.15;0.63;;;20.10;99.90;;;;;;5011673;28;20045;-68
2023/08/09 14:45:46;;;;;;;6.03;0.75;;;20.70;99.90;;;;;;3308748;26;20053;-67
2023/08/09 14:48:12;;;;;;;4.60;1.33;;;21.00;99.90;;;;;;5026256;28;20045;-67
2023/08/09 14:50:38;;;;;;;4.00;0.60;;;20.70;99.90;;;;;;5063947;28;20037;-68
2023/08/09 14:53:04;;;;;;;8.27;1.85;;;22.10;99.90;;;;;;5044429;28;20044;-67
2023/08/09 14:55:30;;;;;;;3.40;0.75;;;20.90;99.90;;;;;;5060069;28;20052;-69
2023/08/09 15:26:44;;;;;;;5.53;0.90;;;20.30;99.90;;;;;;5041328;28;20044;-67
2023/08/09 15:29:11;;;;;;;5.63;0.75;;;;;;;;;;5030242;28;20052;-66
2023/08/09 15:31:52;;;;;;;;;;;;;;;;;;;;;
2023/08/09 15:34:43;;;;;;;3.05;0.70;;;20.50;99.90;;;;;;5021807;28;20589;-68
2023/08/09 15:37:37;;;;;;;2.92;0.70;;;20.20;99.90;;;;;;5022227;28;20049;-68
2023/08/09 15:40:09;;;;;;;4.93;0.93;;;20.20;99.90;;;;;;5024084;28;20045;-67
2023/08/09 15:42:36;;;;;;;2.88;0.90;;;20.10;99.90;;;;;;5033699;28;20042;-69
2023/08/09 15:45:03;;;;;;;4.88;0.70;;;20.10;99.90;;;;;;5045937;28;20049;-66
2023/08/09 15:47:29;;;;;;;6.35;1.13;;;20.10;99.90;;;;;;5019096;28;20502;-67
2023/08/09 15:49:55;;;;;;;8.68;0.98;;;19.80;99.90;;;;;;5038580;28;20045;-67
2023/08/09 15:52:20;;;;;;;6.43;1.10;;;19.90;99.90;;;;;;5035457;28;20041;-67
2023/08/09 15:54:46;;;;;;;4.25;0.80;;;19.90;99.90;;;;;;5014781;28;20069;-67
2023/08/09 15:57:12;;;;;;;3.75;0.65;;;19.80;99.90;;;;;;5037547;28;20049;-67
2023/08/09 15:59:38;;;;;;;6.05;0.98;;;19.90;99.90;;;;;;5038999;28;20423;-67
2023/08/09 16:02:03;;;;;;;6.75;1.05;;;19.90;99.90;;;;;;5033961;28;20036;-67
2023/08/09 16:04:29;;;;;;;4.63;1.05;;;20.00;99.90;;;;;;5013364;28;21004;-67
2023/08/09 16:06:55;;;;;;;6.25;1.15;;;20.00;99.90;;;;;;5043728;28;20053;-67
2023/08/09 16:09:24;;;;;;;5.72;0.93;;;20.00;99.90;;;;;;5041876;28;20068;-67
2023/08/09 16:11:50;;;;;;;5.45;1.15;;;20.00;99.90;;;;;;5017400;28;20045;-67
2023/08/09 16:14:16;;;;;;;4.20;0.82;;;20.00;99.90;;;;;;5017518;28;20843;-67
2023/08/09 16:16:41;;;;;;;2.60;0.70;;;20.10;99.90;;;;;;5035174;28;20045;-68
2023/08/09 16:19:07;;;;;;;4.07;1.23;;;20.10;99.90;;;;;;5030207;28;20116;-71
2023/08/09 16:21:34;;;;;;;4.32;0.90;;;20.70;99.90;;;;;;5018868;28;20049;-69
2023/08/09 16:24:00;;;;;;;3.50;0.63;;;20.00;99.90;;;;;;5022182;28;20041;-71
2023/08/09 16:26:28;;;;;;;5.18;0.75;;;19.80;99.90;;;;;;4999671;28;20049;-70
2023/08/09 16:28:54;;;;;;;4.95;1.15;;;20.10;99.90;;;;;;5043590;28;20033;-70
2023/08/09 16:31:21;;;;;;;3.63;0.88;;;20.20;99.90;;;;;;5049336;28;20510;-69
2023/08/09 16:33:47;;;;;;;4.85;1.00;;;19.80;99.90;;;;;;5025423;28;20422;-69
2023/08/09 16:36:12;;;;;;;4.20;0.80;;;19.90;99.90;;;;;;5043062;28;20056;-69
2023/08/09 16:38:38;;;;;;;4.47;1.27;;;20.10;99.90;;;;;;5045433;28;20163;-68
2023/08/09 16:41:06;;;;;;;4.57;0.90;;;20.40;99.90;;;;;;5010838;28;20040;-68
2023/08/09 16:43:37;;;;;;;8.32;0.98;;;21.50;99.90;;;;;;5004150;28;20042;-67
2023/08/09 16:46:04;;;;;;;11.18;1.27;;;19.80;99.90;;;;;;5019363;28;20060;-67
2023/08/09 16:48:30;;;;;;;4.13;0.73;;;20.80;99.90;;;;;;5039392;28;20044;-67
2023/08/09 16:50:55;;;;;;;7.80;1.02;;;20.00;99.90;;;;;;5014593;28;20800;-67
2023/08/09 16:53:21;;;;;;;4.78;0.80;;;20.00;99.90;;;;;;5037501;28;20083;-67
2023/08/09 16:55:47;;;;;;;5.35;1.27;;;19.70;99.90;;;;;;5022034;28;20150;-66
2023/08/09 16:58:13;;;;;;;6.78;0.98;;;;;;;;;;5024371;28;20083;-68
2023/08/09 17:00:39;;;;;;;5.10;0.80;;;19.90;99.90;;;;;;5039935;28;20045;-69
2023/08/09 17:03:05;;;;;;;3.60;0.90;;;19.80;99.90;;;;;;5017539;28;20037;-68
2023/08/09 17:05:36;;;;;;;4.63;0.75;;;19.60;99.90;;;;;;5039314;28;20045;-68